createdAt,value
2019-04-14T00:00:05.412Z,11.6
2019-04-14T00:15:05.677Z,11.6
2019-04-14T00:30:05.377Z,11.5
2019-04-14T00:45:04.772Z,11.4
2019-04-14T01:00:04.105Z,11.3
2019-04-14T01:15:04.935Z,11.3
2019-04-14T01:30:04.995Z,11.2
2019-04-14T01:45:04.286Z,11.2
2019-04-14T02:00:05.333Z,11.1
2019-04-14T02:15:04.782Z,11.1
2019-04-14T02:30:06.569Z,11.1
2019-04-14T02:45:34.640Z,11
2019-04-14T03:00:31.008Z,11
2019-04-14T03:15:31.591Z,10.9
2019-04-14T03:30:56.705Z,10.8
2019-04-14T03:45:35.490Z,10.7
2019-04-14T04:00:05.244Z,10.5
2019-04-14T04:15:04.275Z,10.5
2019-04-14T04:30:05.909Z,10.3
2019-04-14T04:45:05.795Z,10.2
2019-04-14T05:00:04.914Z,10.1
2019-04-14T05:15:05.302Z,10.1
2019-04-14T05:30:04.956Z,10.2
2019-04-14T05:45:04.458Z,10.1
2019-04-14T06:00:05.890Z,10.2
2019-04-14T06:15:04.778Z,10.2
2019-04-14T06:30:04.760Z,10.2
2019-04-14T06:45:04.108Z,10.3
2019-04-14T07:00:04.856Z,10.2
2019-04-14T07:15:04.169Z,10.2
2019-04-14T07:30:04.640Z,10.2
2019-04-14T07:45:04.914Z,10.3
2019-04-14T08:00:04.316Z,10.2
2019-04-14T08:15:04.614Z,10.2
2019-04-14T08:30:04.597Z,10.2
2019-04-14T08:45:04.384Z,10.3
2019-04-14T09:00:04.148Z,10.2
2019-04-14T09:15:04.881Z,10.2
2019-04-14T09:30:04.853Z,10.3
2019-04-14T09:45:04.091Z,10.3
2019-04-14T10:00:04.273Z,10.4
2019-04-14T10:15:04.542Z,10.4
2019-04-14T10:30:04.089Z,10.4
2019-04-14T10:45:04.334Z,10.4
2019-04-14T11:00:04.507Z,10.4
2019-04-14T11:15:04.732Z,10.5
2019-04-14T11:30:04.167Z,10.4
2019-04-14T11:45:04.566Z,10.5
2019-04-14T12:00:04.897Z,10.5
2019-04-14T12:15:04.179Z,10.5
2019-04-14T12:30:04.175Z,10.5
2019-04-14T12:45:04.469Z,10.5
2019-04-14T13:00:04.232Z,10.6
2019-04-14T13:15:04.027Z,10.6
2019-04-14T13:30:04.500Z,10.7
2019-04-14T13:45:04.288Z,10.7
2019-04-14T14:00:04.605Z,10.7
2019-04-14T14:15:04.388Z,10.7
2019-04-14T14:30:04.359Z,10.6
2019-04-14T14:45:04.724Z,10.6
2019-04-14T15:00:04.053Z,10.6
2019-04-14T15:15:04.319Z,10.5
2019-04-14T15:30:04.828Z,10.6
2019-04-14T15:45:04.688Z,10.6
2019-04-14T16:00:04.928Z,10.5
2019-04-14T16:15:04.233Z,10.4
2019-04-14T16:30:04.676Z,10.5
2019-04-14T16:45:04.932Z,10.4
2019-04-14T17:00:04.730Z,10.4
2019-04-14T17:15:04.976Z,10.4
2019-04-14T17:30:04.462Z,10.4
2019-04-14T17:45:04.153Z,10.4
2019-04-14T18:00:04.500Z,10.3
2019-04-14T18:15:04.763Z,10.3
2019-04-14T18:30:04.787Z,10.3
2019-04-14T18:45:04.592Z,10.3
2019-04-14T19:00:04.843Z,10.3
2019-04-14T19:15:04.183Z,10.3
2019-04-14T19:30:04.770Z,10.3
2019-04-14T19:45:04.518Z,10.3
2019-04-14T20:00:04.852Z,10.3
2019-04-14T20:15:04.581Z,10.3
2019-04-14T20:30:04.106Z,10.3
2019-04-14T20:45:04.456Z,10.3
2019-04-14T21:00:04.807Z,10.3
2019-04-14T21:15:04.019Z,10.2
2019-04-14T21:30:04.590Z,10.2
2019-04-14T21:45:04.375Z,10.3
2019-04-14T22:00:04.639Z,10.3
2019-04-14T22:15:04.957Z,10.3
2019-04-14T22:30:04.925Z,10.3
2019-04-14T22:45:04.188Z,10.3
2019-04-14T23:00:04.972Z,10.3
2019-04-14T23:15:04.732Z,10.2
2019-04-14T23:30:04.699Z,10.3
2019-04-14T23:45:04.963Z,10.2
